KERI

Erie International Airport

Airport
ICAO code
KERI
Summary
ICAO Region
NAM
ICAO Territory
Location

Erie, Pennsylvania,

Elevation
732 ft
Coordinates
42° 4' 55" N , 80° 10' 34" W
KCC
Airport GND
Aircraft Ground De/Anti Icing
Airport RE
Landing on Contaminated Runways
Metar
Observation
KERI 032051Z 04009KT 10SM CLR 13/04 A3031 RMK AO2 SLP268 T01330044 56012
Station
Erie, Erie International Airport
Date/Time
2022-10-03 20:51:00
Wind direction
40°
Wind speed
09 kts
Lowest cloud amount
n/a
Temperature
13.3°C
Dew point
4.4°C
Humidity
54%
Weather condition
n/a

Description

Erie International Airport, also known as Tom Ridge Field, is a public use airport located 8 km southwest of the central business district of Erie, a city in Erie County, Pennsylvania.

Climatology

Humid Continental climate (Köppen climate classification Dfa) - Variable weather patterns and a large seasonal temperature variance. Summers are often warm and humid with frequent thunderstorms and winters can be very cold with frequent snowfall and persistent snow cover.

Airport map

Aerial View

SKYbrary Partners:

Safety knowledge contributed by: